Tuesday, July 22, 2014
21:39 UTC
  |  Log In   |  Register Free
Airport Search:

Mount Sterling-Montgomery County Airport
(KIOB)

Mount Sterling-Montgomery County Airport Diagram
No Airport Diagram Available

FAA data valid effective May 29, 2014 until July 24, 2014 (unless otherwise noted).

 
 
 
 
 
 
 
 
 
 
 
 
 
 

Current Aviation Weather for Mount Sterling-Montgomery County Airport (KIOB)

The most recent METAR observation for KIOB was updated at: 2035 UTC
METAR Summary (Translated METAR)
KIOB
222035Z AUTO 23003KT 10SM SCT042 31/22 A3009 RMK AO2
KLEX
(29.6 nm SW from KIOB)
221954Z 20009G15KT 10SM SCT042 32/21 A3008 RMK AO2 SLP175 T03220211
TAF Summary (Translated TAF)
KLEX
(29.6 nm SW from KIOB)
221731Z 2218/2318 22005KT P6SM SCT040 FM231000 19004KT 6SM BR SCT250 FM231300 25007KT P6SM SCT050
KJKL
(42 nm SE from KIOB)
221739Z 2218/2318 VRB06KT P6SM SCT050 FM231300 25006KT P6SM VCSH BKN050
  Airport Weather Conditions for KIOB

 Current Weather at IOB
88° F
Fair
North winds at 0.0 mph
IOB NOAA Radar

Pressure: 30.08 in
Humidity: 55%
Wind: Calm
Dew Point: 69.8°F
Visibility: 10.00 mi


Airport Weather Forecast for KIOB

Translated METAR and TAF for KIOB
Translated METAR for KIOB (2133 UTC 22 July 2014)
found at http://aviationweather.gov/adds/metars/
 
METAR text: KIOB 222115Z AUTO 00000KT 10SM CLR 31/22 A3008 RMK AO2
Conditions at: KIOB (MOUNT STERLING , KY, US) observed 2115 UTC 22 July 2014
Temperature: 31.0°C (88°F)
Dewpoint: 22.0°C (72°F) [RH = 59%]
Pressure (altimeter): 30.08 inches Hg (1018.7 mb)
Winds: calm
Visibility: 10 or more miles (16+ km)
Ceiling: at least 12,000 feet AGL
Clouds: sky clear below 12,000 feet AGL
Weather: automated observation with no human augmentation;
there may or may not be significant weather present at this time
Translated TAF for KIOB

There is no translated TAF available for this airport

Find All Airport Services Find A Hotel Find A Rental Car Find A Golf Course Find A Restaurant $100 Hamburger



FBO's on the Field
FBO Company Facility Photos Services Transportation Aviation Fuel Prices: Prices include tax
Catering Weather Repair Courtesy Rental Type 100LL JetA JetA+ MOGAS 8087
 
Kentucky Airmotive Inc

This FBO has not yet been rated
FS:Shell
Last Updated: Jul-10
Login to update fuel prices
SS:
Contact Kentucky Airmotive IncMore FBO Information
 
Add another FBO Facility Photos Catering Weather Repair Courtesy Rental Type 100LL JetA JetA+ MOGAS 8087
Services Transportation Aviation Fuel Prices: Prices include tax


GlobalAir.com Airport Resource Center model-print
model-print
model-print
model-print